sensor_id;sensor_type;location;lat;lon;timestamp;P1;durP1;ratioP1;P2;durP2;ratioP2
35188;SDS011;21762;54.480;18.556;2022-07-12T00:00:45;1.67;;;1.35;;
35188;SDS011;21762;54.480;18.556;2022-07-12T00:03:13;4.18;;;1.42;;
35188;SDS011;21762;54.480;18.556;2022-07-12T00:05:41;1.45;;;1.10;;
35188;SDS011;21762;54.480;18.556;2022-07-12T00:08:09;1.15;;;1.00;;
35188;SDS011;21762;54.480;18.556;2022-07-12T00:10:38;1.98;;;1.45;;
35188;SDS011;21762;54.480;18.556;2022-07-12T00:13:06;3.65;;;1.35;;
35188;SDS011;21762;54.480;18.556;2022-07-12T00:15:34;1.63;;;1.17;;
35188;SDS011;21762;54.480;18.556;2022-07-12T00:18:04;1.30;;;1.20;;
35188;SDS011;21762;54.480;18.556;2022-07-12T00:20:32;4.18;;;1.40;;
35188;SDS011;21762;54.480;18.556;2022-07-12T00:23:00;2.22;;;1.67;;
35188;SDS011;21762;54.480;18.556;2022-07-12T00:25:29;1.60;;;1.50;;
35188;SDS011;21762;54.480;18.556;2022-07-12T00:27:57;3.38;;;1.40;;
35188;SDS011;21762;54.480;18.556;2022-07-12T00:30:25;2.40;;;1.20;;
35188;SDS011;21762;54.480;18.556;2022-07-12T00:32:54;1.70;;;1.20;;
35188;SDS011;21762;54.480;18.556;2022-07-12T00:35:23;2.30;;;1.35;;
35188;SDS011;21762;54.480;18.556;2022-07-12T00:37:53;1.45;;;1.33;;
35188;SDS011;21762;54.480;18.556;2022-07-12T00:40:22;3.00;;;1.60;;
35188;SDS011;21762;54.480;18.556;2022-07-12T00:42:50;2.55;;;1.40;;
35188;SDS011;21762;54.480;18.556;2022-07-12T00:45:18;2.25;;;1.08;;
35188;SDS011;21762;54.480;18.556;2022-07-12T00:47:46;4.60;;;1.45;;
35188;SDS011;21762;54.480;18.556;2022-07-12T00:50:18;2.17;;;1.83;;
35188;SDS011;21762;54.480;18.556;2022-07-12T00:52:50;2.30;;;1.40;;
35188;SDS011;21762;54.480;18.556;2022-07-12T00:55:21;1.92;;;1.30;;
35188;SDS011;21762;54.480;18.556;2022-07-12T00:57:51;3.13;;;1.63;;
35188;SDS011;21762;54.480;18.556;2022-07-12T01:00:23;2.53;;;1.50;;
35188;SDS011;21762;54.480;18.556;2022-07-12T01:02:55;2.55;;;1.40;;
35188;SDS011;21762;54.480;18.556;2022-07-12T01:07:55;5.85;;;1.98;;
35188;SDS011;21762;54.480;18.556;2022-07-12T01:10:23;2.60;;;1.10;;
35188;SDS011;21762;54.480;18.556;2022-07-12T01:12:51;5.68;;;2.08;;
35188;SDS011;21762;54.480;18.556;2022-07-12T01:15:20;1.95;;;1.38;;
35188;SDS011;21762;54.480;18.556;2022-07-12T01:17:49;1.50;;;1.40;;
35188;SDS011;21762;54.480;18.556;2022-07-12T01:20:18;2.33;;;1.40;;
35188;SDS011;21762;54.480;18.556;2022-07-12T01:22:51;3.28;;;1.77;;
35188;SDS011;21762;54.480;18.556;2022-07-12T01:25:20;2.08;;;1.92;;
35188;SDS011;21762;54.480;18.556;2022-07-12T01:27:48;3.72;;;1.70;;
35188;SDS011;21762;54.480;18.556;2022-07-12T01:30:16;2.08;;;1.88;;
35188;SDS011;21762;54.480;18.556;2022-07-12T01:32:44;3.17;;;2.05;;
35188;SDS011;21762;54.480;18.556;2022-07-12T01:35:15;6.22;;;2.58;;
35188;SDS011;21762;54.480;18.556;2022-07-12T01:37:43;4.00;;;2.45;;
35188;SDS011;21762;54.480;18.556;2022-07-12T01:40:14;3.92;;;2.35;;
35188;SDS011;21762;54.480;18.556;2022-07-12T01:42:42;5.75;;;2.65;;
35188;SDS011;21762;54.480;18.556;2022-07-12T01:45:11;2.70;;;2.22;;
35188;SDS011;21762;54.480;18.556;2022-07-12T01:47:40;3.28;;;1.80;;
35188;SDS011;21762;54.480;18.556;2022-07-12T01:50:09;2.50;;;2.28;;
35188;SDS011;21762;54.480;18.556;2022-07-12T01:52:38;4.78;;;1.98;;
35188;SDS011;21762;54.480;18.556;2022-07-12T01:55:07;4.10;;;2.10;;
35188;SDS011;21762;54.480;18.556;2022-07-12T01:57:38;4.53;;;1.88;;
35188;SDS011;21762;54.480;18.556;2022-07-12T02:00:09;3.17;;;2.20;;
35188;SDS011;21762;54.480;18.556;2022-07-12T02:02:39;5.55;;;1.98;;
35188;SDS011;21762;54.480;18.556;2022-07-12T02:05:12;3.53;;;1.77;;
35188;SDS011;21762;54.480;18.556;2022-07-12T02:07:41;3.85;;;2.13;;
35188;SDS011;21762;54.480;18.556;2022-07-12T02:10:09;5.78;;;2.17;;
35188;SDS011;21762;54.480;18.556;2022-07-12T02:12:39;2.55;;;2.10;;
35188;SDS011;21762;54.480;18.556;2022-07-12T02:15:07;4.63;;;2.17;;
35188;SDS011;21762;54.480;18.556;2022-07-12T02:17:39;1.70;;;1.60;;
35188;SDS011;21762;54.480;18.556;2022-07-12T02:20:09;4.30;;;2.10;;
35188;SDS011;21762;54.480;18.556;2022-07-12T02:22:39;2.42;;;1.98;;
35188;SDS011;21762;54.480;18.556;2022-07-12T02:25:07;2.47;;;1.70;;
35188;SDS011;21762;54.480;18.556;2022-07-12T02:27:35;4.82;;;1.67;;
35188;SDS011;21762;54.480;18.556;2022-07-12T02:30:07;2.40;;;1.90;;
35188;SDS011;21762;54.480;18.556;2022-07-12T02:32:36;4.60;;;1.92;;
35188;SDS011;21762;54.480;18.556;2022-07-12T02:35:05;1.73;;;1.60;;
35188;SDS011;21762;54.480;18.556;2022-07-12T02:37:33;4.00;;;1.80;;
35188;SDS011;21762;54.480;18.556;2022-07-12T02:40:02;5.10;;;2.08;;
35188;SDS011;21762;54.480;18.556;2022-07-12T02:42:50;3.83;;;1.88;;
35188;SDS011;21762;54.480;18.556;2022-07-12T02:45:18;2.92;;;1.88;;
35188;SDS011;21762;54.480;18.556;2022-07-12T02:47:47;4.18;;;1.98;;
35188;SDS011;21762;54.480;18.556;2022-07-12T02:50:15;2.15;;;1.48;;
35188;SDS011;21762;54.480;18.556;2022-07-12T02:52:43;1.90;;;1.80;;
35188;SDS011;21762;54.480;18.556;2022-07-12T02:55:11;4.20;;;1.88;;
35188;SDS011;21762;54.480;18.556;2022-07-12T02:57:39;2.75;;;1.70;;
35188;SDS011;21762;54.480;18.556;2022-07-12T03:00:10;2.88;;;1.77;;
35188;SDS011;21762;54.480;18.556;2022-07-12T03:02:39;3.83;;;1.83;;
35188;SDS011;21762;54.480;18.556;2022-07-12T03:05:10;3.35;;;1.85;;
35188;SDS011;21762;54.480;18.556;2022-07-12T03:07:38;4.57;;;2.00;;
35188;SDS011;21762;54.480;18.556;2022-07-12T03:10:06;2.33;;;1.75;;
35188;SDS011;21762;54.480;18.556;2022-07-12T03:12:37;2.60;;;1.60;;
35188;SDS011;21762;54.480;18.556;2022-07-12T03:15:06;5.68;;;1.70;;
35188;SDS011;21762;54.480;18.556;2022-07-12T03:17:36;3.78;;;1.70;;
35188;SDS011;21762;54.480;18.556;2022-07-12T03:20:06;2.85;;;1.77;;
35188;SDS011;21762;54.480;18.556;2022-07-12T03:25:06;2.30;;;2.10;;
35188;SDS011;21762;54.480;18.556;2022-07-12T03:27:35;4.05;;;1.60;;
35188;SDS011;21762;54.480;18.556;2022-07-12T03:30:06;2.13;;;1.60;;
35188;SDS011;21762;54.480;18.556;2022-07-12T03:32:37;2.97;;;2.13;;
35188;SDS011;21762;54.480;18.556;2022-07-12T03:35:09;5.50;;;1.65;;
35188;SDS011;21762;54.480;18.556;2022-07-12T03:37:42;2.70;;;1.52;;
35188;SDS011;21762;54.480;18.556;2022-07-12T03:40:11;4.57;;;1.40;;
35188;SDS011;21762;54.480;18.556;2022-07-12T03:42:43;2.10;;;1.30;;
35188;SDS011;21762;54.480;18.556;2022-07-12T03:45:12;3.35;;;1.73;;
35188;SDS011;21762;54.480;18.556;2022-07-12T03:47:44;1.55;;;1.00;;
35188;SDS011;21762;54.480;18.556;2022-07-12T03:52:41;1.65;;;0.93;;
35188;SDS011;21762;54.480;18.556;2022-07-12T03:55:11;3.30;;;2.15;;
35188;SDS011;21762;54.480;18.556;2022-07-12T03:57:40;2.05;;;1.25;;
35188;SDS011;21762;54.480;18.556;2022-07-12T04:00:09;2.58;;;0.50;;
35188;SDS011;21762;54.480;18.556;2022-07-12T04:02:38;2.80;;;0.77;;
35188;SDS011;21762;54.480;18.556;2022-07-12T04:05:11;1.10;;;0.65;;
35188;SDS011;21762;54.480;18.556;2022-07-12T04:07:42;2.15;;;0.50;;
35188;SDS011;21762;54.480;18.556;2022-07-12T04:10:10;6.47;;;0.77;;
35188;SDS011;21762;54.480;18.556;2022-07-12T04:12:38;1.45;;;0.85;;
35188;SDS011;21762;54.480;18.556;2022-07-12T04:15:07;0.80;;;0.77;;
35188;SDS011;21762;54.480;18.556;2022-07-12T04:17:36;2.42;;;0.90;;
35188;SDS011;21762;54.480;18.556;2022-07-12T04:20:05;3.72;;;0.88;;
35188;SDS011;21762;54.480;18.556;2022-07-12T04:22:36;1.30;;;0.73;;
35188;SDS011;21762;54.480;18.556;2022-07-12T04:25:04;3.35;;;1.10;;
35188;SDS011;21762;54.480;18.556;2022-07-12T04:27:33;4.38;;;1.23;;
35188;SDS011;21762;54.480;18.556;2022-07-12T04:30:01;2.53;;;0.82;;
35188;SDS011;21762;54.480;18.556;2022-07-12T04:32:30;1.15;;;0.70;;
35188;SDS011;21762;54.480;18.556;2022-07-12T04:34:58;4.38;;;1.42;;
35188;SDS011;21762;54.480;18.556;2022-07-12T04:37:26;1.23;;;0.70;;
35188;SDS011;21762;54.480;18.556;2022-07-12T04:39:56;3.97;;;0.73;;
35188;SDS011;21762;54.480;18.556;2022-07-12T04:42:25;1.15;;;0.70;;
35188;SDS011;21762;54.480;18.556;2022-07-12T04:44:53;1.30;;;0.60;;
35188;SDS011;21762;54.480;18.556;2022-07-12T04:47:22;0.63;;;0.50;;
35188;SDS011;21762;54.480;18.556;2022-07-12T04:49:53;2.00;;;1.20;;
35188;SDS011;21762;54.480;18.556;2022-07-12T04:52:21;3.35;;;1.08;;
35188;SDS011;21762;54.480;18.556;2022-07-12T04:54:49;2.05;;;0.52;;
35188;SDS011;21762;54.480;18.556;2022-07-12T04:57:19;3.95;;;0.75;;
35188;SDS011;21762;54.480;18.556;2022-07-12T04:59:47;3.05;;;0.70;;
35188;SDS011;21762;54.480;18.556;2022-07-12T05:02:15;3.15;;;0.70;;
35188;SDS011;21762;54.480;18.556;2022-07-12T05:04:43;5.38;;;0.73;;
35188;SDS011;21762;54.480;18.556;2022-07-12T05:07:13;2.55;;;0.65;;
35188;SDS011;21762;54.480;18.556;2022-07-12T05:09:41;1.77;;;0.60;;
35188;SDS011;21762;54.480;18.556;2022-07-12T05:12:09;1.55;;;0.60;;
35188;SDS011;21762;54.480;18.556;2022-07-12T05:14:39;2.30;;;0.80;;
35188;SDS011;21762;54.480;18.556;2022-07-12T05:17:07;2.30;;;0.50;;
35188;SDS011;21762;54.480;18.556;2022-07-12T05:19:36;1.15;;;0.50;;
35188;SDS011;21762;54.480;18.556;2022-07-12T05:22:05;1.52;;;0.77;;
35188;SDS011;21762;54.480;18.556;2022-07-12T05:24:35;2.42;;;0.55;;
35188;SDS011;21762;54.480;18.556;2022-07-12T05:27:03;0.65;;;0.50;;
35188;SDS011;21762;54.480;18.556;2022-07-12T05:29:32;1.27;;;0.40;;
35188;SDS011;21762;54.480;18.556;2022-07-12T05:32:02;1.45;;;0.50;;
35188;SDS011;21762;54.480;18.556;2022-07-12T05:34:34;1.40;;;0.60;;
35188;SDS011;21762;54.480;18.556;2022-07-12T05:37:02;1.80;;;0.65;;
35188;SDS011;21762;54.480;18.556;2022-07-12T05:39:30;4.32;;;0.50;;
35188;SDS011;21762;54.480;18.556;2022-07-12T05:41:59;0.98;;;0.50;;
35188;SDS011;21762;54.480;18.556;2022-07-12T05:44:27;2.15;;;0.60;;
35188;SDS011;21762;54.480;18.556;2022-07-12T05:46:57;2.13;;;0.63;;
35188;SDS011;21762;54.480;18.556;2022-07-12T05:49:26;3.45;;;0.80;;
35188;SDS011;21762;54.480;18.556;2022-07-12T05:51:58;3.33;;;0.60;;
35188;SDS011;21762;54.480;18.556;2022-07-12T05:54:44;2.30;;;0.50;;
35188;SDS011;21762;54.480;18.556;2022-07-12T05:57:13;1.25;;;0.50;;
35188;SDS011;21762;54.480;18.556;2022-07-12T05:59:43;2.97;;;0.57;;
35188;SDS011;21762;54.480;18.556;2022-07-12T06:02:13;2.60;;;1.20;;
35188;SDS011;21762;54.480;18.556;2022-07-12T06:04:43;3.15;;;0.65;;
35188;SDS011;21762;54.480;18.556;2022-07-12T06:07:16;1.40;;;0.57;;
35188;SDS011;21762;54.480;18.556;2022-07-12T06:09:44;3.08;;;0.38;;
35188;SDS011;21762;54.480;18.556;2022-07-12T06:12:13;4.90;;;0.80;;
35188;SDS011;21762;54.480;18.556;2022-07-12T06:14:41;2.65;;;0.70;;
35188;SDS011;21762;54.480;18.556;2022-07-12T06:17:09;3.63;;;0.60;;
35188;SDS011;21762;54.480;18.556;2022-07-12T06:19:38;0.47;;;0.32;;
35188;SDS011;21762;54.480;18.556;2022-07-12T06:22:07;1.15;;;0.50;;
35188;SDS011;21762;54.480;18.556;2022-07-12T06:24:42;2.22;;;0.57;;
35188;SDS011;21762;54.480;18.556;2022-07-12T06:27:10;1.23;;;0.40;;
35188;SDS011;21762;54.480;18.556;2022-07-12T06:29:41;0.68;;;0.40;;
35188;SDS011;21762;54.480;18.556;2022-07-12T06:32:14;2.10;;;1.08;;
35188;SDS011;21762;54.480;18.556;2022-07-12T06:34:42;0.73;;;0.40;;
35188;SDS011;21762;54.480;18.556;2022-07-12T06:37:12;1.70;;;0.40;;
35188;SDS011;21762;54.480;18.556;2022-07-12T06:39:41;2.33;;;0.40;;
35188;SDS011;21762;54.480;18.556;2022-07-12T06:42:10;1.45;;;0.47;;
35188;SDS011;21762;54.480;18.556;2022-07-12T06:44:48;1.42;;;0.40;;
35188;SDS011;21762;54.480;18.556;2022-07-12T06:47:16;6.53;;;0.47;;
35188;SDS011;21762;54.480;18.556;2022-07-12T06:49:46;2.25;;;0.50;;
35188;SDS011;21762;54.480;18.556;2022-07-12T06:52:16;0.45;;;0.22;;
35188;SDS011;21762;54.480;18.556;2022-07-12T06:54:47;2.08;;;0.60;;
35188;SDS011;21762;54.480;18.556;2022-07-12T06:57:15;2.80;;;0.30;;
35188;SDS011;21762;54.480;18.556;2022-07-12T06:59:43;3.20;;;0.52;;
35188;SDS011;21762;54.480;18.556;2022-07-12T07:02:11;1.80;;;0.45;;
35188;SDS011;21762;54.480;18.556;2022-07-12T07:04:39;3.05;;;0.30;;
35188;SDS011;21762;54.480;18.556;2022-07-12T07:07:07;0.20;;;0.20;;
35188;SDS011;21762;54.480;18.556;2022-07-12T07:09:37;2.83;;;0.40;;
35188;SDS011;21762;54.480;18.556;2022-07-12T07:12:05;0.30;;;0.30;;
35188;SDS011;21762;54.480;18.556;2022-07-12T07:14:33;0.95;;;0.45;;
35188;SDS011;21762;54.480;18.556;2022-07-12T07:17:02;0.57;;;0.38;;
35188;SDS011;21762;54.480;18.556;2022-07-12T07:19:30;8.10;;;0.65;;
35188;SDS011;21762;54.480;18.556;2022-07-12T07:21:59;3.03;;;0.40;;
35188;SDS011;21762;54.480;18.556;2022-07-12T07:24:28;1.35;;;0.40;;
35188;SDS011;21762;54.480;18.556;2022-07-12T07:27:02;0.30;;;0.30;;
35188;SDS011;21762;54.480;18.556;2022-07-12T07:29:31;0.43;;;0.30;;
35188;SDS011;21762;54.480;18.556;2022-07-12T07:32:19;0.85;;;0.20;;
35188;SDS011;21762;54.480;18.556;2022-07-12T07:34:47;2.97;;;0.28;;
35188;SDS011;21762;54.480;18.556;2022-07-12T07:37:19;1.48;;;0.30;;
35188;SDS011;21762;54.480;18.556;2022-07-12T07:39:47;0.52;;;0.20;;
35188;SDS011;21762;54.480;18.556;2022-07-12T07:42:26;0.40;;;0.28;;
35188;SDS011;21762;54.480;18.556;2022-07-12T07:44:57;0.65;;;0.40;;
35188;SDS011;21762;54.480;18.556;2022-07-12T07:47:47;0.47;;;0.25;;
35188;SDS011;21762;54.480;18.556;2022-07-12T07:50:36;0.30;;;0.20;;
35188;SDS011;21762;54.480;18.556;2022-07-12T07:53:04;13.70;;;0.75;;
35188;SDS011;21762;54.480;18.556;2022-07-12T07:55:33;1.55;;;0.30;;
35188;SDS011;21762;54.480;18.556;2022-07-12T07:58:02;1.25;;;0.40;;
35188;SDS011;21762;54.480;18.556;2022-07-12T08:00:36;1.85;;;0.30;;
35188;SDS011;21762;54.480;18.556;2022-07-12T08:03:04;0.85;;;0.20;;
35188;SDS011;21762;54.480;18.556;2022-07-12T08:05:34;1.27;;;0.52;;
35188;SDS011;21762;54.480;18.556;2022-07-12T08:08:03;5.05;;;0.30;;
35188;SDS011;21762;54.480;18.556;2022-07-12T08:10:34;2.83;;;0.50;;
35188;SDS011;21762;54.480;18.556;2022-07-12T08:13:03;1.55;;;0.52;;
35188;SDS011;21762;54.480;18.556;2022-07-12T08:15:32;0.43;;;0.40;;
35188;SDS011;21762;54.480;18.556;2022-07-12T08:18:00;1.48;;;0.30;;
35188;SDS011;21762;54.480;18.556;2022-07-12T08:20:30;0.93;;;0.20;;
35188;SDS011;21762;54.480;18.556;2022-07-12T08:23:14;1.27;;;0.20;;
35188;SDS011;21762;54.480;18.556;2022-07-12T08:25:42;1.67;;;0.40;;
35188;SDS011;21762;54.480;18.556;2022-07-12T08:28:12;1.38;;;0.30;;
35188;SDS011;21762;54.480;18.556;2022-07-12T08:30:40;0.60;;;0.40;;
35188;SDS011;21762;54.480;18.556;2022-07-12T08:33:11;2.60;;;0.50;;
35188;SDS011;21762;54.480;18.556;2022-07-12T08:35:40;2.75;;;0.57;;
35188;SDS011;21762;54.480;18.556;2022-07-12T08:38:09;1.65;;;0.30;;
35188;SDS011;21762;54.480;18.556;2022-07-12T08:40:37;2.25;;;0.45;;
35188;SDS011;21762;54.480;18.556;2022-07-12T08:43:06;2.10;;;0.32;;
35188;SDS011;21762;54.480;18.556;2022-07-12T08:45:36;1.02;;;0.40;;
35188;SDS011;21762;54.480;18.556;2022-07-12T08:48:07;2.10;;;0.30;;
35188;SDS011;21762;54.480;18.556;2022-07-12T08:50:36;1.80;;;0.38;;
35188;SDS011;21762;54.480;18.556;2022-07-12T08:53:09;1.23;;;0.28;;
35188;SDS011;21762;54.480;18.556;2022-07-12T08:55:38;0.30;;;0.30;;
35188;SDS011;21762;54.480;18.556;2022-07-12T08:58:15;0.82;;;0.50;;
35188;SDS011;21762;54.480;18.556;2022-07-12T09:00:46;1.38;;;0.30;;
35188;SDS011;21762;54.480;18.556;2022-07-12T09:03:15;0.35;;;0.32;;
35188;SDS011;21762;54.480;18.556;2022-07-12T09:05:47;1.80;;;0.22;;
35188;SDS011;21762;54.480;18.556;2022-07-12T09:08:28;3.13;;;0.20;;
35188;SDS011;21762;54.480;18.556;2022-07-12T09:11:02;2.20;;;0.38;;
35188;SDS011;21762;54.480;18.556;2022-07-12T09:13:48;1.17;;;0.38;;
35188;SDS011;21762;54.480;18.556;2022-07-12T09:16:19;2.33;;;0.40;;
35188;SDS011;21762;54.480;18.556;2022-07-12T09:18:48;2.53;;;0.40;;
35188;SDS011;21762;54.480;18.556;2022-07-12T09:21:21;0.88;;;0.22;;
35188;SDS011;21762;54.480;18.556;2022-07-12T09:23:53;7.00;;;0.75;;
35188;SDS011;21762;54.480;18.556;2022-07-12T09:26:29;5.13;;;0.30;;
35188;SDS011;21762;54.480;18.556;2022-07-12T09:29:04;2.40;;;0.45;;
35188;SDS011;21762;54.480;18.556;2022-07-12T09:31:44;2.20;;;0.20;;
35188;SDS011;21762;54.480;18.556;2022-07-12T09:34:34;1.05;;;0.30;;
35188;SDS011;21762;54.480;18.556;2022-07-12T09:37:20;1.50;;;0.20;;
35188;SDS011;21762;54.480;18.556;2022-07-12T09:39:49;0.85;;;0.30;;
35188;SDS011;21762;54.480;18.556;2022-07-12T09:42:19;0.60;;;0.20;;
35188;SDS011;21762;54.480;18.556;2022-07-12T09:44:51;8.88;;;2.05;;
35188;SDS011;21762;54.480;18.556;2022-07-12T09:47:22;1.58;;;0.50;;
35188;SDS011;21762;54.480;18.556;2022-07-12T09:49:54;0.75;;;0.20;;
35188;SDS011;21762;54.480;18.556;2022-07-12T09:52:23;2.53;;;0.20;;
35188;SDS011;21762;54.480;18.556;2022-07-12T09:54:55;4.45;;;0.32;;
35188;SDS011;21762;54.480;18.556;2022-07-12T09:57:27;2.88;;;0.30;;
35188;SDS011;21762;54.480;18.556;2022-07-12T10:00:01;2.38;;;0.35;;
35188;SDS011;21762;54.480;18.556;2022-07-12T10:02:39;5.05;;;0.50;;
35188;SDS011;21762;54.480;18.556;2022-07-12T10:05:09;3.05;;;0.50;;
35188;SDS011;21762;54.480;18.556;2022-07-12T10:07:40;3.25;;;0.47;;
35188;SDS011;21762;54.480;18.556;2022-07-12T10:10:11;0.77;;;0.30;;
35188;SDS011;21762;54.480;18.556;2022-07-12T10:12:42;0.85;;;0.35;;
35188;SDS011;21762;54.480;18.556;2022-07-12T10:15:14;1.02;;;0.38;;
35188;SDS011;21762;54.480;18.556;2022-07-12T10:17:51;0.25;;;0.25;;
35188;SDS011;21762;54.480;18.556;2022-07-12T10:20:24;2.55;;;0.30;;
35188;SDS011;21762;54.480;18.556;2022-07-12T10:22:54;0.47;;;0.30;;
35188;SDS011;21762;54.480;18.556;2022-07-12T10:25:32;2.00;;;0.43;;
35188;SDS011;21762;54.480;18.556;2022-07-12T10:28:03;0.22;;;0.20;;
35188;SDS011;21762;54.480;18.556;2022-07-12T10:33:17;0.73;;;0.30;;
35188;SDS011;21762;54.480;18.556;2022-07-12T10:36:00;0.65;;;0.28;;
35188;SDS011;21762;54.480;18.556;2022-07-12T10:38:31;0.28;;;0.10;;
35188;SDS011;21762;54.480;18.556;2022-07-12T10:41:15;1.85;;;0.30;;
35188;SDS011;21762;54.480;18.556;2022-07-12T10:43:45;1.63;;;0.28;;
35188;SDS011;21762;54.480;18.556;2022-07-12T10:46:32;1.10;;;0.20;;
35188;SDS011;21762;54.480;18.556;2022-07-12T10:52:16;1.52;;;0.30;;
35188;SDS011;21762;54.480;18.556;2022-07-12T10:57:46;0.62;;;0.12;;
35188;SDS011;21762;54.480;18.556;2022-07-12T11:00:18;3.63;;;0.15;;
35188;SDS011;21762;54.480;18.556;2022-07-12T11:02:48;2.95;;;0.35;;
35188;SDS011;21762;54.480;18.556;2022-07-12T11:07:57;1.45;;;0.05;;
35188;SDS011;21762;54.480;18.556;2022-07-12T11:10:33;0.15;;;0.05;;
35188;SDS011;21762;54.480;18.556;2022-07-12T11:13:01;3.72;;;0.40;;
35188;SDS011;21762;54.480;18.556;2022-07-12T11:15:29;0.40;;;0.20;;
35188;SDS011;21762;54.480;18.556;2022-07-12T11:17:57;2.72;;;0.20;;
35188;SDS011;21762;54.480;18.556;2022-07-12T11:20:28;1.88;;;0.63;;
35188;SDS011;21762;54.480;18.556;2022-07-12T11:22:57;2.75;;;0.30;;
35188;SDS011;21762;54.480;18.556;2022-07-12T11:25:26;1.73;;;0.30;;
35188;SDS011;21762;54.480;18.556;2022-07-12T11:27:54;2.83;;;0.35;;
35188;SDS011;21762;54.480;18.556;2022-07-12T11:30:24;0.57;;;0.30;;
35188;SDS011;21762;54.480;18.556;2022-07-12T11:32:52;0.50;;;0.35;;
35188;SDS011;21762;54.480;18.556;2022-07-12T11:35:23;1.55;;;0.22;;
35188;SDS011;21762;54.480;18.556;2022-07-12T11:37:55;1.85;;;0.30;;
35188;SDS011;21762;54.480;18.556;2022-07-12T11:40:24;1.60;;;0.30;;
35188;SDS011;21762;54.480;18.556;2022-07-12T11:42:56;0.87;;;0.60;;
35188;SDS011;21762;54.480;18.556;2022-07-12T11:45:25;0.63;;;0.25;;
35188;SDS011;21762;54.480;18.556;2022-07-12T11:47:55;2.05;;;0.70;;
35188;SDS011;21762;54.480;18.556;2022-07-12T11:50:26;1.05;;;0.40;;
35188;SDS011;21762;54.480;18.556;2022-07-12T11:53:04;1.25;;;0.30;;
35188;SDS011;21762;54.480;18.556;2022-07-12T11:55:40;1.42;;;0.40;;
35188;SDS011;21762;54.480;18.556;2022-07-12T11:58:13;4.68;;;0.40;;
35188;SDS011;21762;54.480;18.556;2022-07-12T12:03:42;0.30;;;0.30;;
35188;SDS011;21762;54.480;18.556;2022-07-12T12:06:12;0.45;;;0.40;;
35188;SDS011;21762;54.480;18.556;2022-07-12T12:08:42;2.38;;;0.40;;
35188;SDS011;21762;54.480;18.556;2022-07-12T12:11:11;1.63;;;0.30;;
35188;SDS011;21762;54.480;18.556;2022-07-12T12:13:43;0.68;;;0.45;;
35188;SDS011;21762;54.480;18.556;2022-07-12T12:16:26;1.15;;;0.40;;
35188;SDS011;21762;54.480;18.556;2022-07-12T12:19:00;0.68;;;0.30;;
35188;SDS011;21762;54.480;18.556;2022-07-12T12:21:29;0.38;;;0.30;;
35188;SDS011;21762;54.480;18.556;2022-07-12T12:24:09;2.03;;;0.20;;
35188;SDS011;21762;54.480;18.556;2022-07-12T12:26:38;1.52;;;0.40;;
35188;SDS011;21762;54.480;18.556;2022-07-12T12:29:07;2.85;;;0.50;;
35188;SDS011;21762;54.480;18.556;2022-07-12T12:31:36;1.15;;;0.43;;
35188;SDS011;21762;54.480;18.556;2022-07-12T12:34:09;1.35;;;0.30;;
35188;SDS011;21762;54.480;18.556;2022-07-12T12:36:38;0.30;;;0.30;;
35188;SDS011;21762;54.480;18.556;2022-07-12T12:39:08;1.10;;;0.30;;
35188;SDS011;21762;54.480;18.556;2022-07-12T12:41:41;2.10;;;0.32;;
35188;SDS011;21762;54.480;18.556;2022-07-12T12:44:10;5.22;;;0.30;;
35188;SDS011;21762;54.480;18.556;2022-07-12T12:46:46;1.40;;;0.40;;
35188;SDS011;21762;54.480;18.556;2022-07-12T12:49:17;3.15;;;0.40;;
35188;SDS011;21762;54.480;18.556;2022-07-12T12:51:52;2.95;;;0.40;;
35188;SDS011;21762;54.480;18.556;2022-07-12T12:54:33;1.05;;;0.40;;
35188;SDS011;21762;54.480;18.556;2022-07-12T12:57:02;2.57;;;0.30;;
35188;SDS011;21762;54.480;18.556;2022-07-12T12:59:31;3.95;;;0.30;;
35188;SDS011;21762;54.480;18.556;2022-07-12T13:02:00;0.98;;;0.35;;
35188;SDS011;21762;54.480;18.556;2022-07-12T13:04:29;1.63;;;0.50;;
35188;SDS011;21762;54.480;18.556;2022-07-12T13:06:58;1.55;;;0.40;;
35188;SDS011;21762;54.480;18.556;2022-07-12T13:09:26;3.75;;;0.40;;
35188;SDS011;21762;54.480;18.556;2022-07-12T13:11:57;3.10;;;0.30;;
35188;SDS011;21762;54.480;18.556;2022-07-12T13:14:26;1.00;;;0.40;;
35188;SDS011;21762;54.480;18.556;2022-07-12T13:17:00;3.67;;;0.52;;
35188;SDS011;21762;54.480;18.556;2022-07-12T13:19:29;0.75;;;0.30;;
35188;SDS011;21762;54.480;18.556;2022-07-12T13:21:58;1.10;;;0.32;;
35188;SDS011;21762;54.480;18.556;2022-07-12T13:24:26;2.42;;;0.52;;
35188;SDS011;21762;54.480;18.556;2022-07-12T13:26:56;1.48;;;0.32;;
35188;SDS011;21762;54.480;18.556;2022-07-12T13:29:26;0.73;;;0.30;;
35188;SDS011;21762;54.480;18.556;2022-07-12T13:31:54;2.47;;;0.38;;
35188;SDS011;21762;54.480;18.556;2022-07-12T13:34:22;14.23;;;2.25;;
35188;SDS011;21762;54.480;18.556;2022-07-12T13:36:55;1.75;;;0.30;;
35188;SDS011;21762;54.480;18.556;2022-07-12T13:39:25;4.03;;;0.40;;
35188;SDS011;21762;54.480;18.556;2022-07-12T13:42:15;1.20;;;0.30;;
35188;SDS011;21762;54.480;18.556;2022-07-12T13:44:43;1.25;;;0.50;;
35188;SDS011;21762;54.480;18.556;2022-07-12T13:47:14;2.67;;;0.40;;
35188;SDS011;21762;54.480;18.556;2022-07-12T13:49:42;1.02;;;0.40;;
35188;SDS011;21762;54.480;18.556;2022-07-12T13:52:10;0.88;;;0.43;;
35188;SDS011;21762;54.480;18.556;2022-07-12T13:54:38;0.85;;;0.30;;
35188;SDS011;21762;54.480;18.556;2022-07-12T13:57:07;0.38;;;0.32;;
35188;SDS011;21762;54.480;18.556;2022-07-12T13:59:36;0.43;;;0.30;;
35188;SDS011;21762;54.480;18.556;2022-07-12T14:02:05;4.28;;;0.55;;
35188;SDS011;21762;54.480;18.556;2022-07-12T14:04:33;2.55;;;0.43;;
35188;SDS011;21762;54.480;18.556;2022-07-12T14:07:01;6.25;;;0.57;;
35188;SDS011;21762;54.480;18.556;2022-07-12T14:09:32;2.78;;;0.60;;
35188;SDS011;21762;54.480;18.556;2022-07-12T14:12:00;1.98;;;0.30;;
35188;SDS011;21762;54.480;18.556;2022-07-12T14:14:29;2.33;;;0.47;;
35188;SDS011;21762;54.480;18.556;2022-07-12T14:17:15;2.85;;;0.50;;
35188;SDS011;21762;54.480;18.556;2022-07-12T14:19:44;1.55;;;0.28;;
35188;SDS011;21762;54.480;18.556;2022-07-12T14:22:15;0.93;;;0.60;;
35188;SDS011;21762;54.480;18.556;2022-07-12T14:24:44;4.03;;;0.73;;
35188;SDS011;21762;54.480;18.556;2022-07-12T14:27:12;2.72;;;0.43;;
35188;SDS011;21762;54.480;18.556;2022-07-12T14:29:41;2.67;;;0.50;;
35188;SDS011;21762;54.480;18.556;2022-07-12T14:32:13;0.60;;;0.35;;
35188;SDS011;21762;54.480;18.556;2022-07-12T14:34:43;1.98;;;0.60;;
35188;SDS011;21762;54.480;18.556;2022-07-12T14:37:11;1.40;;;0.40;;
35188;SDS011;21762;54.480;18.556;2022-07-12T14:39:42;1.20;;;0.33;;
35188;SDS011;21762;54.480;18.556;2022-07-12T14:42:10;6.05;;;0.50;;
35188;SDS011;21762;54.480;18.556;2022-07-12T14:44:38;0.30;;;0.30;;
35188;SDS011;21762;54.480;18.556;2022-07-12T14:47:07;0.93;;;0.30;;
35188;SDS011;21762;54.480;18.556;2022-07-12T14:49:35;4.40;;;0.40;;
35188;SDS011;21762;54.480;18.556;2022-07-12T14:52:05;0.73;;;0.30;;
35188;SDS011;21762;54.480;18.556;2022-07-12T14:54:34;0.77;;;0.30;;
35188;SDS011;21762;54.480;18.556;2022-07-12T14:57:02;0.45;;;0.40;;
35188;SDS011;21762;54.480;18.556;2022-07-12T14:59:31;6.50;;;0.63;;
35188;SDS011;21762;54.480;18.556;2022-07-12T15:01:59;2.72;;;0.40;;
35188;SDS011;21762;54.480;18.556;2022-07-12T15:04:29;1.48;;;0.32;;
35188;SDS011;21762;54.480;18.556;2022-07-12T15:06:57;0.88;;;0.50;;
35188;SDS011;21762;54.480;18.556;2022-07-12T15:09:26;1.63;;;0.50;;
35188;SDS011;21762;54.480;18.556;2022-07-12T15:11:58;1.90;;;0.45;;
35188;SDS011;21762;54.480;18.556;2022-07-12T15:14:28;1.98;;;0.43;;